Time;durP1;ratioP1;P1;durP2;ratioP2;P2;SDS_P1;SDS_P2;PMS_P1;PMS_P2;Temp;Humidity;BMP_temperature;BMP_pressure;BME280_temperature;BME280_humidity;BME280_pressure;Samples;Min_cycle;Max_cycle;Signal;HPM_P1;HPM_P2
2023/06/13 00:00:51;;;;;;;;;;;22.60;52.70;;;;;;20913919;28;19932;-58
2023/06/13 00:10:52;;;;;;;;;;;22.40;55.20;;;;;;20913752;28;19994;-58
2023/06/13 00:20:54;;;;;;;;;;;22.10;59.00;;;;;;20912866;28;19925;-58
2023/06/13 00:30:55;;;;;;;;;;;22.00;60.10;;;;;;20912710;28;19925;-57
2023/06/13 00:40:57;;;;;;;;;;;21.70;63.70;;;;;;20911826;28;20063;-58
2023/06/13 00:50:59;;;;;;;;;;;21.60;65.80;;;;;;20911158;28;20063;-57
2023/06/13 01:01:02;;;;;;;;;;;21.60;68.40;;;;;;20924591;28;19925;-58
2023/06/13 01:11:06;;;;;;;;;;;21.20;69.20;;;;;;20924466;28;19991;-57
2023/06/13 01:21:08;;;;;;;;;;;21.10;67.40;;;;;;20923286;28;19925;-57
2023/06/13 01:31:10;;;;;;;;;;;21.10;66.00;;;;;;20924203;28;20378;-59
2023/06/13 01:41:10;;;;;;;;;;;21.00;67.00;;;;;;20923660;28;19959;-58
2023/06/13 01:51:17;;;;;;;;;;;21.00;64.10;;;;;;20921318;28;19931;-58
2023/06/13 02:01:19;;;;;;;;;;;20.80;63.20;;;;;;20922128;28;19925;-57
2023/06/13 02:11:20;;;;;;;;;;;20.70;64.20;;;;;;20920633;28;19928;-59
2023/06/13 02:21:21;;;;;;;;;;;20.60;65.00;;;;;;20918781;28;19986;-57
2023/06/13 02:31:22;;;;;;;;;;;20.50;65.30;;;;;;20919241;28;19947;-57
2023/06/13 02:41:23;;;;;;;;;;;20.50;65.30;;;;;;20917172;28;20024;-58
2023/06/13 02:51:23;;;;;;;;;;;20.50;65.60;;;;;;20916378;28;19979;-57
2023/06/13 03:01:26;;;;;;;;;;;20.40;68.20;;;;;;20915538;28;20012;-57
2023/06/13 03:11:26;;;;;;;;;;;20.20;68.60;;;;;;20916134;28;20294;-58
2023/06/13 03:21:27;;;;;;;;;;;20.20;68.20;;;;;;20914334;28;19925;-58
2023/06/13 03:31:28;;;;;;;;;;;19.90;67.50;;;;;;20915077;28;19924;-58
2023/06/13 03:41:28;;;;;;;;;;;19.80;67.90;;;;;;20914287;28;19931;-57
2023/06/13 03:51:29;;;;;;;;;;;19.60;68.70;;;;;;20913431;28;19924;-57
2023/06/13 04:01:30;;;;;;;;;;;19.50;68.70;;;;;;20911932;28;19925;-57
2023/06/13 04:11:31;;;;;;;;;;;19.40;69.10;;;;;;20911097;28;19925;-58
2023/06/13 04:21:32;;;;;;;;;;;19.30;70.00;;;;;;20912029;28;19925;-57
2023/06/13 04:31:35;;;;;;;;;;;19.40;69.00;;;;;;20917880;28;19925;-57
2023/06/13 04:41:37;;;;;;;;;;;19.70;66.90;;;;;;20925408;28;21341;-57
2023/06/13 04:51:40;;;;;;;;;;;19.60;65.70;;;;;;20926525;28;19971;-57
2023/06/13 05:01:43;;;;;;;;;;;19.70;68.30;;;;;;20926277;28;19929;-58
2023/06/13 05:11:44;;;;;;;;;;;19.70;71.00;;;;;;20925373;28;19978;-57
2023/06/13 05:21:46;;;;;;;;;;;19.60;71.90;;;;;;20923459;28;19960;-57
2023/06/13 05:31:47;;;;;;;;;;;19.70;72.50;;;;;;20923943;28;20019;-57
2023/06/13 05:41:47;;;;;;;;;;;19.40;71.30;;;;;;20922470;28;19971;-58
2023/06/13 05:51:48;;;;;;;;;;;19.40;71.30;;;;;;20922373;28;20011;-57
2023/06/13 06:01:49;;;;;;;;;;;19.30;70.40;;;;;;20920654;28;20024;-58
2023/06/13 06:11:50;;;;;;;;;;;19.40;69.90;;;;;;20920136;28;19925;-56
2023/06/13 06:21:51;;;;;;;;;;;19.50;70.10;;;;;;20918833;28;19932;-58
2023/06/13 06:31:51;;;;;;;;;;;19.70;68.80;;;;;;20918824;28;20385;-57
2023/06/13 06:41:52;;;;;;;;;;;19.80;66.80;;;;;;20917557;28;20008;-57
2023/06/13 06:51:52;;;;;;;;;;;19.90;66.50;;;;;;20915362;28;19982;-58
2023/06/13 07:01:53;;;;;;;;;;;20.40;65.40;;;;;;20915793;28;20405;-58
2023/06/13 07:11:57;;;;;;;;;;;21.20;63.20;;;;;;20915141;28;19929;-57
2023/06/13 07:21:58;;;;;;;;;;;22.00;60.00;;;;;;20913225;28;19931;-56
2023/06/13 07:32:02;;;;;;;;;;;22.40;58.70;;;;;;20914726;28;19931;-58
2023/06/13 07:42:05;;;;;;;;;;;23.10;56.50;;;;;;20914162;28;19935;-58
2023/06/13 07:52:08;;;;;;;;;;;23.50;55.60;;;;;;20912458;28;19925;-59
2023/06/13 08:02:08;;;;;;;;;;;23.60;55.90;;;;;;20912969;28;20430;-57
2023/06/13 08:12:10;;;;;;;;;;;23.80;54.40;;;;;;20929952;28;19972;-57
2023/06/13 08:22:11;;;;;;;;;;;24.20;53.50;;;;;;20927589;28;19925;-58
2023/06/13 08:32:11;;;;;;;;;;;24.50;53.00;;;;;;20927023;28;20355;-58
2023/06/13 08:42:12;;;;;;;;;;;24.70;50.90;;;;;;20927542;28;19925;-59
2023/06/13 08:52:13;;;;;;;;;;;24.90;50.30;;;;;;20925444;28;19933;-57
2023/06/13 09:02:17;;;;;;;;;;;24.60;51.20;;;;;;20926165;28;19924;-57
2023/06/13 09:12:18;;;;;;;;;;;24.90;50.60;;;;;;20924400;28;19954;-58
2023/06/13 09:22:19;;;;;;;;;;;25.10;50.60;;;;;;20924897;28;19925;-61
2023/06/13 09:32:20;;;;;;;;;;;25.50;48.70;;;;;;20923916;28;19932;-60
2023/06/13 09:42:22;;;;;;;;;;;25.30;49.10;;;;;;20923193;28;19925;-60
2023/06/13 09:52:24;;;;;;;;;;;25.40;50.20;;;;;;20922323;28;19928;-61
2023/06/13 10:02:24;;;;;;;;;;;25.10;48.90;;;;;;20920788;28;19929;-62
2023/06/13 10:12:25;;;;;;;;;;;25.50;48.70;;;;;;20920421;28;19931;-62
2023/06/13 10:22:26;;;;;;;;;;;25.20;49.10;;;;;;20919651;28;19948;-63
2023/06/13 10:32:27;;;;;;;;;;;25.40;48.70;;;;;;20916359;28;19976;-61
2023/06/13 10:42:43;;;;;;;;;;;25.60;49.90;;;;;;20916540;28;19925;-60
2023/06/13 10:52:48;;;;;;;;;;;25.60;46.70;;;;;;20916415;28;20443;-62
2023/06/13 11:02:48;;;;;;;;;;;25.90;47.00;;;;;;20914518;28;19925;-63
2023/06/13 11:12:49;;;;;;;;;;;25.90;46.70;;;;;;20913454;28;20298;-61
2023/06/13 11:22:50;;;;;;;;;;;26.10;43.30;;;;;;20914117;28;19925;-62
2023/06/13 11:32:51;;;;;;;;;;;26.60;40.10;;;;;;20915145;28;19932;-61
2023/06/13 11:42:53;;;;;;;;;;;26.60;38.90;;;;;;20912411;28;19932;-61
2023/06/13 11:53:09;;;;;;;;;;;26.50;39.90;;;;;;20912598;28;19935;-60
2023/06/13 12:03:10;;;;;;;;;;;26.10;38.50;;;;;;20913373;28;20020;-61
2023/06/13 12:13:11;;;;;;;;;;;25.40;38.70;;;;;;20911374;28;19987;-62
2023/06/13 12:23:12;;;;;;;;;;;24.90;35.90;;;;;;20912125;28;20390;-62
2023/06/13 12:33:15;;;;;;;;;;;24.70;38.50;;;;;;20912390;28;19925;-61
2023/06/13 12:43:15;;;;;;;;;;;24.60;35.20;;;;;;20910461;28;19925;-61
2023/06/13 12:53:20;;;;;;;;;;;24.60;34.90;;;;;;20919840;28;19947;-60
2023/06/13 13:03:21;;;;;;;;;;;24.70;35.30;;;;;;20925645;28;19925;-60
2023/06/13 13:13:22;;;;;;;;;;;24.60;35.00;;;;;;20924898;28;19929;-60
2023/06/13 13:23:22;;;;;;;;;;;24.80;34.40;;;;;;20924671;28;19947;-61
2023/06/13 13:33:25;;;;;;;;;;;25.00;37.50;;;;;;20922735;28;19928;-60
2023/06/13 13:43:25;;;;;;;;;;;24.90;39.50;;;;;;20922490;28;19925;-61
2023/06/13 13:53:28;;;;;;;;;;;25.10;40.10;;;;;;20922583;28;20405;-62
2023/06/13 14:03:28;;;;;;;;;;;25.20;39.60;;;;;;20920644;28;20011;-60
2023/06/13 14:13:29;;;;;;;;;;;25.40;39.30;;;;;;20920850;28;19979;-60
2023/06/13 14:23:30;;;;;;;;;;;25.50;38.60;;;;;;20919251;28;20074;-60
2023/06/13 14:33:30;;;;;;;;;;;25.50;38.10;;;;;;20919517;28;20427;-61
2023/06/13 14:43:31;;;;;;;;;;;25.50;36.00;;;;;;20918882;28;19936;-60
2023/06/13 14:53:34;;;;;;;;;;;25.60;35.20;;;;;;20916094;28;19929;-61
2023/06/13 15:03:39;;;;;;;;;;;25.80;35.60;;;;;;20916576;28;19974;-61
2023/06/13 15:13:40;;;;;;;;;;;25.70;37.80;;;;;;20915962;28;20055;-61
2023/06/13 15:23:40;;;;;;;;;;;25.50;35.20;;;;;;20913987;28;19925;-61
2023/06/13 15:33:42;;;;;;;;;;;25.30;38.30;;;;;;20913899;28;20390;-62
2023/06/13 15:43:43;;;;;;;;;;;25.30;39.80;;;;;;20913675;28;19932;-57
2023/06/13 15:53:43;;;;;;;;;;;25.40;38.00;;;;;;20912994;28;20370;-58
2023/06/13 16:03:44;;;;;;;;;;;25.30;36.50;;;;;;20913173;28;19932;-60
2023/06/13 16:13:45;;;;;;;;;;;25.60;35.00;;;;;;20904967;28;19925;-61
2023/06/13 16:23:45;;;;;;;;;;;25.60;35.70;;;;;;20905902;28;19925;-60
2023/06/13 16:33:46;;;;;;;;;;;25.80;36.30;;;;;;20927065;28;19959;-59
2023/06/13 16:43:46;;;;;;;;;;;25.80;33.20;;;;;;20926301;28;19925;-57
2023/06/13 16:53:47;;;;;;;;;;;25.70;39.50;;;;;;20925863;28;19931;-58
2023/06/13 17:03:48;;;;;;;;;;;25.80;39.10;;;;;;20924971;28;20015;-60
2023/06/13 17:13:48;;;;;;;;;;;25.70;40.40;;;;;;20924047;28;19931;-59
2023/06/13 17:23:49;;;;;;;;;;;25.60;40.10;;;;;;20923087;28;19925;-60
2023/06/13 17:33:50;;;;;;;;;;;25.60;40.10;;;;;;20922072;28;19924;-62
2023/06/13 17:43:50;;;;;;;;;;;25.30;40.80;;;;;;20918956;28;19925;-60
2023/06/13 17:53:52;;;;;;;;;;;25.10;41.20;;;;;;20919551;28;19932;-62
2023/06/13 18:03:53;;;;;;;;;;;24.80;41.60;;;;;;20920237;28;19967;-58
2023/06/13 18:13:55;;;;;;;;;;;24.80;42.60;;;;;;20920543;28;19928;-59
2023/06/13 18:23:56;;;;;;;;;;;24.60;43.50;;;;;;20920047;28;19924;-58
2023/06/13 18:33:56;;;;;;;;;;;24.40;44.00;;;;;;20919047;28;20017;-58
2023/06/13 18:44:03;;;;;;;;;;;24.20;44.60;;;;;;20917189;28;20012;-59
2023/06/13 18:54:03;;;;;;;;;;;24.10;43.70;;;;;;20915140;28;20098;-59
2023/06/13 19:04:05;;;;;;;;;;;24.20;42.70;;;;;;20914997;28;20447;-60
2023/06/13 19:14:06;;;;;;;;;;;24.00;41.30;;;;;;20915286;28;20409;-58
2023/06/13 19:24:07;;;;;;;;;;;23.90;41.60;;;;;;20913617;28;20034;-59
2023/06/13 19:34:07;;;;;;;;;;;23.70;42.70;;;;;;20913832;28;19925;-59
2023/06/13 19:44:08;;;;;;;;;;;23.50;44.20;;;;;;20913271;28;19925;-58
2023/06/13 19:54:08;;;;;;;;;;;23.30;45.20;;;;;;20912770;28;19931;-59
2023/06/13 20:04:12;;;;;;;;;;;23.20;45.70;;;;;;20911680;28;19925;-60
2023/06/13 20:14:12;;;;;;;;;;;23.20;45.80;;;;;;20910648;28;19925;-60
2023/06/13 20:24:13;;;;;;;;;;;23.20;46.10;;;;;;20911030;28;20349;-58
2023/06/13 20:34:16;;;;;;;;;;;23.10;46.50;;;;;;20909902;28;19928;-59
2023/06/13 20:44:16;;;;;;;;;;;23.00;47.00;;;;;;20910604;28;20027;-59
2023/06/13 20:54:17;;;;;;;;;;;22.80;48.00;;;;;;20910347;28;19976;-60
2023/06/13 21:04:18;;;;;;;;;;;22.80;48.30;;;;;;20908939;28;19925;-58
2023/06/13 21:14:19;;;;;;;;;;;22.70;48.60;;;;;;20916268;28;20382;-59
2023/06/13 21:24:19;;;;;;;;;;;22.60;49.10;;;;;;20923524;28;20390;-59
2023/06/13 21:34:20;;;;;;;;;;;22.40;49.40;;;;;;20923745;28;19932;-59
2023/06/13 21:44:21;;;;;;;;;;;22.40;49.50;;;;;;20923070;28;19978;-59
2023/06/13 21:54:21;;;;;;;;;;;22.40;49.60;;;;;;20921110;28;19925;-59
2023/06/13 22:04:22;;;;;;;;;;;22.30;49.90;;;;;;20921249;28;20019;-59
2023/06/13 22:14:25;;;;;;;;;;;22.20;50.60;;;;;;20920488;28;19978;-59
2023/06/13 22:24:26;;;;;;;;;;;22.10;51.00;;;;;;20916919;28;19928;-59
2023/06/13 22:34:26;;;;;;;;;;;22.00;51.50;;;;;;20917235;28;20409;-59
2023/06/13 22:44:27;;;;;;;;;;;21.90;52.00;;;;;;20917928;28;19925;-59
2023/06/13 22:54:28;;;;;;;;;;;21.70;52.40;;;;;;20917471;28;20297;-59
2023/06/13 23:04:30;;;;;;;;;;;21.70;52.80;;;;;;20916951;28;19944;-59
2023/06/13 23:14:31;;;;;;;;;;;21.60;53.10;;;;;;20916312;28;20427;-58
2023/06/13 23:24:31;;;;;;;;;;;21.50;53.40;;;;;;20916074;28;19982;-58
2023/06/13 23:34:33;;;;;;;;;;;21.60;53.40;;;;;;20914509;28;20289;-58
2023/06/13 23:44:34;;;;;;;;;;;21.50;53.60;;;;;;20914234;28;20382;-58
2023/06/13 23:54:35;;;;;;;;;;;21.50;53.90;;;;;;20913583;28;19964;-59
